sensor_id;sensor_type;location;lat;lon;timestamp;P1;durP1;ratioP1;P2;durP2;ratioP2
9773;SDS011;4926;42.670;23.316;2023-02-01T00:01:36;9.90;;;7.15;;
9773;SDS011;4926;42.670;23.316;2023-02-01T00:04:03;10.15;;;7.30;;
9773;SDS011;4926;42.670;23.316;2023-02-01T00:06:31;8.57;;;5.88;;
9773;SDS011;4926;42.670;23.316;2023-02-01T00:08:58;8.10;;;6.43;;
9773;SDS011;4926;42.670;23.316;2023-02-01T00:11:31;8.25;;;5.10;;
9773;SDS011;4926;42.670;23.316;2023-02-01T00:13:57;9.30;;;5.47;;
9773;SDS011;4926;42.670;23.316;2023-02-01T00:16:25;7.15;;;5.95;;
9773;SDS011;4926;42.670;23.316;2023-02-01T00:18:56;7.38;;;6.18;;
9773;SDS011;4926;42.670;23.316;2023-02-01T00:21:24;6.53;;;5.70;;
9773;SDS011;4926;42.670;23.316;2023-02-01T00:23:51;4.88;;;4.20;;
9773;SDS011;4926;42.670;23.316;2023-02-01T00:26:18;6.35;;;4.88;;
9773;SDS011;4926;42.670;23.316;2023-02-01T00:31:41;5.93;;;4.45;;
9773;SDS011;4926;42.670;23.316;2023-02-01T00:34:08;6.57;;;4.65;;
9773;SDS011;4926;42.670;23.316;2023-02-01T00:36:37;5.60;;;4.20;;
9773;SDS011;4926;42.670;23.316;2023-02-01T00:39:04;5.95;;;3.90;;
9773;SDS011;4926;42.670;23.316;2023-02-01T00:41:31;6.15;;;5.10;;
9773;SDS011;4926;42.670;23.316;2023-02-01T00:43:57;4.05;;;3.65;;
9773;SDS011;4926;42.670;23.316;2023-02-01T00:46:27;6.13;;;4.60;;
9773;SDS011;4926;42.670;23.316;2023-02-01T00:48:54;4.35;;;3.55;;
9773;SDS011;4926;42.670;23.316;2023-02-01T00:51:22;4.53;;;3.33;;
9773;SDS011;4926;42.670;23.316;2023-02-01T00:53:50;5.07;;;3.97;;
9773;SDS011;4926;42.670;23.316;2023-02-01T00:56:17;4.50;;;3.47;;
9773;SDS011;4926;42.670;23.316;2023-02-01T00:58:44;4.95;;;4.20;;
9773;SDS011;4926;42.670;23.316;2023-02-01T01:01:11;7.30;;;4.00;;
9773;SDS011;4926;42.670;23.316;2023-02-01T01:03:44;4.20;;;3.38;;
9773;SDS011;4926;42.670;23.316;2023-02-01T01:06:12;3.25;;;2.95;;
9773;SDS011;4926;42.670;23.316;2023-02-01T01:08:40;4.13;;;3.60;;
9773;SDS011;4926;42.670;23.316;2023-02-01T01:11:08;6.60;;;3.75;;
9773;SDS011;4926;42.670;23.316;2023-02-01T01:13:37;4.10;;;3.17;;
9773;SDS011;4926;42.670;23.316;2023-02-01T01:16:05;6.30;;;3.30;;
9773;SDS011;4926;42.670;23.316;2023-02-01T01:18:32;6.72;;;5.22;;
9773;SDS011;4926;42.670;23.316;2023-02-01T01:21:03;5.55;;;4.22;;
9773;SDS011;4926;42.670;23.316;2023-02-01T01:23:31;7.13;;;4.68;;
9773;SDS011;4926;42.670;23.316;2023-02-01T01:25:58;10.70;;;6.15;;
9773;SDS011;4926;42.670;23.316;2023-02-01T01:28:25;4.20;;;3.40;;
9773;SDS011;4926;42.670;23.316;2023-02-01T01:30:57;4.03;;;3.22;;
9773;SDS011;4926;42.670;23.316;2023-02-01T01:33:27;3.30;;;2.90;;
9773;SDS011;4926;42.670;23.316;2023-02-01T01:35:53;5.07;;;2.80;;
9773;SDS011;4926;42.670;23.316;2023-02-01T01:38:22;4.95;;;3.22;;
9773;SDS011;4926;42.670;23.316;2023-02-01T01:40:50;2.83;;;2.60;;
9773;SDS011;4926;42.670;23.316;2023-02-01T01:43:17;4.15;;;3.15;;
9773;SDS011;4926;42.670;23.316;2023-02-01T01:45:47;5.63;;;3.00;;
9773;SDS011;4926;42.670;23.316;2023-02-01T01:48:16;5.03;;;2.80;;
9773;SDS011;4926;42.670;23.316;2023-02-01T01:50:56;4.05;;;3.03;;
9773;SDS011;4926;42.670;23.316;2023-02-01T01:53:30;4.43;;;2.83;;
9773;SDS011;4926;42.670;23.316;2023-02-01T01:55:59;4.68;;;2.72;;
9773;SDS011;4926;42.670;23.316;2023-02-01T01:58:29;6.00;;;2.95;;
9773;SDS011;4926;42.670;23.316;2023-02-01T02:00:59;3.47;;;2.60;;
9773;SDS011;4926;42.670;23.316;2023-02-01T02:03:27;6.20;;;2.85;;
9773;SDS011;4926;42.670;23.316;2023-02-01T02:05:59;3.53;;;2.88;;
9773;SDS011;4926;42.670;23.316;2023-02-01T02:08:35;4.55;;;3.10;;
9773;SDS011;4926;42.670;23.316;2023-02-01T02:11:03;4.13;;;2.92;;
9773;SDS011;4926;42.670;23.316;2023-02-01T02:13:31;5.38;;;2.90;;
9773;SDS011;4926;42.670;23.316;2023-02-01T02:16:15;3.80;;;2.80;;
9773;SDS011;4926;42.670;23.316;2023-02-01T02:18:54;4.75;;;3.00;;
9773;SDS011;4926;42.670;23.316;2023-02-01T02:21:41;3.85;;;2.80;;
9773;SDS011;4926;42.670;23.316;2023-02-01T02:27:21;4.85;;;2.70;;
9773;SDS011;4926;42.670;23.316;2023-02-01T02:30:03;3.10;;;2.80;;
9773;SDS011;4926;42.670;23.316;2023-02-01T02:32:54;3.58;;;2.80;;
9773;SDS011;4926;42.670;23.316;2023-02-01T02:35:45;4.55;;;2.75;;
9773;SDS011;4926;42.670;23.316;2023-02-01T02:38:19;4.50;;;2.75;;
9773;SDS011;4926;42.670;23.316;2023-02-01T02:40:59;4.47;;;2.80;;
9773;SDS011;4926;42.670;23.316;2023-02-01T02:43:33;5.13;;;2.88;;
9773;SDS011;4926;42.670;23.316;2023-02-01T02:46:29;5.53;;;2.72;;
9773;SDS011;4926;42.670;23.316;2023-02-01T02:49:20;4.13;;;2.70;;
9773;SDS011;4926;42.670;23.316;2023-02-01T02:51:53;4.82;;;3.03;;
9773;SDS011;4926;42.670;23.316;2023-02-01T02:54:41;4.70;;;2.80;;
9773;SDS011;4926;42.670;23.316;2023-02-01T02:57:16;4.85;;;3.03;;
9773;SDS011;4926;42.670;23.316;2023-02-01T03:00:04;5.93;;;3.08;;
9773;SDS011;4926;42.670;23.316;2023-02-01T03:02:54;4.70;;;2.10;;
9773;SDS011;4926;42.670;23.316;2023-02-01T03:05:40;3.33;;;2.65;;
9773;SDS011;4926;42.670;23.316;2023-02-01T03:08:13;5.93;;;2.40;;
9773;SDS011;4926;42.670;23.316;2023-02-01T03:10:42;3.50;;;2.58;;
9773;SDS011;4926;42.670;23.316;2023-02-01T03:13:30;7.82;;;2.35;;
9773;SDS011;4926;42.670;23.316;2023-02-01T03:16:07;3.03;;;2.47;;
9773;SDS011;4926;42.670;23.316;2023-02-01T03:18:41;4.18;;;2.17;;
9773;SDS011;4926;42.670;23.316;2023-02-01T03:21:16;2.78;;;2.10;;
9773;SDS011;4926;42.670;23.316;2023-02-01T03:23:50;3.78;;;2.75;;
9773;SDS011;4926;42.670;23.316;2023-02-01T03:26:19;2.65;;;1.90;;
9773;SDS011;4926;42.670;23.316;2023-02-01T03:28:55;2.88;;;2.20;;
9773;SDS011;4926;42.670;23.316;2023-02-01T03:31:26;4.53;;;2.05;;
9773;SDS011;4926;42.670;23.316;2023-02-01T03:34:00;4.32;;;2.28;;
9773;SDS011;4926;42.670;23.316;2023-02-01T03:36:28;3.22;;;2.17;;
9773;SDS011;4926;42.670;23.316;2023-02-01T03:39:07;3.55;;;2.17;;
9773;SDS011;4926;42.670;23.316;2023-02-01T03:41:41;4.63;;;2.63;;
9773;SDS011;4926;42.670;23.316;2023-02-01T03:44:12;2.25;;;2.00;;
9773;SDS011;4926;42.670;23.316;2023-02-01T03:46:43;3.58;;;2.40;;
9773;SDS011;4926;42.670;23.316;2023-02-01T03:49:17;12.07;;;2.60;;
9773;SDS011;4926;42.670;23.316;2023-02-01T03:51:49;4.32;;;2.10;;
9773;SDS011;4926;42.670;23.316;2023-02-01T03:54:18;3.67;;;2.25;;
9773;SDS011;4926;42.670;23.316;2023-02-01T03:56:46;2.22;;;2.00;;
9773;SDS011;4926;42.670;23.316;2023-02-01T03:59:14;2.85;;;2.03;;
9773;SDS011;4926;42.670;23.316;2023-02-01T04:01:41;3.38;;;2.13;;
9773;SDS011;4926;42.670;23.316;2023-02-01T04:04:08;2.85;;;2.25;;
9773;SDS011;4926;42.670;23.316;2023-02-01T04:06:35;4.68;;;2.10;;
9773;SDS011;4926;42.670;23.316;2023-02-01T04:09:10;2.92;;;1.90;;
9773;SDS011;4926;42.670;23.316;2023-02-01T04:11:38;2.88;;;2.17;;
9773;SDS011;4926;42.670;23.316;2023-02-01T04:14:10;3.47;;;2.33;;
9773;SDS011;4926;42.670;23.316;2023-02-01T04:16:36;3.25;;;2.30;;
9773;SDS011;4926;42.670;23.316;2023-02-01T04:19:03;4.20;;;2.60;;
9773;SDS011;4926;42.670;23.316;2023-02-01T04:21:30;3.55;;;2.60;;
9773;SDS011;4926;42.670;23.316;2023-02-01T04:23:57;3.08;;;2.45;;
9773;SDS011;4926;42.670;23.316;2023-02-01T04:26:23;2.92;;;2.45;;
9773;SDS011;4926;42.670;23.316;2023-02-01T04:28:52;3.70;;;2.50;;
9773;SDS011;4926;42.670;23.316;2023-02-01T04:31:19;3.40;;;2.65;;
9773;SDS011;4926;42.670;23.316;2023-02-01T04:33:50;2.90;;;2.60;;
9773;SDS011;4926;42.670;23.316;2023-02-01T04:36:17;4.70;;;2.95;;
9773;SDS011;4926;42.670;23.316;2023-02-01T04:38:46;4.03;;;2.75;;
9773;SDS011;4926;42.670;23.316;2023-02-01T04:41:16;6.93;;;2.92;;
9773;SDS011;4926;42.670;23.316;2023-02-01T04:43:44;3.35;;;2.55;;
9773;SDS011;4926;42.670;23.316;2023-02-01T04:46:15;5.50;;;3.05;;
9773;SDS011;4926;42.670;23.316;2023-02-01T04:48:42;12.13;;;3.42;;
9773;SDS011;4926;42.670;23.316;2023-02-01T04:51:09;4.00;;;3.13;;
9773;SDS011;4926;42.670;23.316;2023-02-01T04:53:40;6.13;;;3.35;;
9773;SDS011;4926;42.670;23.316;2023-02-01T04:56:07;4.10;;;3.40;;
9773;SDS011;4926;42.670;23.316;2023-02-01T04:58:34;4.88;;;2.97;;
9773;SDS011;4926;42.670;23.316;2023-02-01T05:01:02;4.10;;;3.22;;
9773;SDS011;4926;42.670;23.316;2023-02-01T05:03:30;5.30;;;2.83;;
9773;SDS011;4926;42.670;23.316;2023-02-01T05:05:57;4.03;;;3.22;;
9773;SDS011;4926;42.670;23.316;2023-02-01T05:08:28;3.88;;;3.28;;
9773;SDS011;4926;42.670;23.316;2023-02-01T05:10:55;5.72;;;3.67;;
9773;SDS011;4926;42.670;23.316;2023-02-01T05:13:28;5.20;;;2.95;;
9773;SDS011;4926;42.670;23.316;2023-02-01T05:16:13;8.15;;;3.42;;
9773;SDS011;4926;42.670;23.316;2023-02-01T05:18:44;4.38;;;3.17;;
9773;SDS011;4926;42.670;23.316;2023-02-01T05:21:10;4.72;;;3.28;;
9773;SDS011;4926;42.670;23.316;2023-02-01T05:23:37;5.43;;;3.58;;
9773;SDS011;4926;42.670;23.316;2023-02-01T05:26:18;4.90;;;3.85;;
9773;SDS011;4926;42.670;23.316;2023-02-01T05:28:44;7.35;;;3.55;;
9773;SDS011;4926;42.670;23.316;2023-02-01T05:31:14;7.68;;;3.22;;
9773;SDS011;4926;42.670;23.316;2023-02-01T05:33:42;5.38;;;3.53;;
9773;SDS011;4926;42.670;23.316;2023-02-01T05:36:09;6.55;;;3.70;;
9773;SDS011;4926;42.670;23.316;2023-02-01T05:38:35;5.32;;;3.30;;
9773;SDS011;4926;42.670;23.316;2023-02-01T05:41:02;5.72;;;3.78;;
9773;SDS011;4926;42.670;23.316;2023-02-01T05:43:29;6.78;;;3.85;;
9773;SDS011;4926;42.670;23.316;2023-02-01T05:45:56;9.48;;;3.33;;
9773;SDS011;4926;42.670;23.316;2023-02-01T05:48:23;5.13;;;3.42;;
9773;SDS011;4926;42.670;23.316;2023-02-01T05:50:51;7.95;;;3.35;;
9773;SDS011;4926;42.670;23.316;2023-02-01T05:53:18;3.97;;;3.13;;
9773;SDS011;4926;42.670;23.316;2023-02-01T05:55:49;4.70;;;3.97;;
9773;SDS011;4926;42.670;23.316;2023-02-01T05:58:16;4.85;;;3.10;;
9773;SDS011;4926;42.670;23.316;2023-02-01T06:00:43;5.68;;;3.60;;
9773;SDS011;4926;42.670;23.316;2023-02-01T06:03:12;4.85;;;3.50;;
9773;SDS011;4926;42.670;23.316;2023-02-01T06:05:39;7.05;;;3.58;;
9773;SDS011;4926;42.670;23.316;2023-02-01T06:08:12;7.80;;;3.25;;
9773;SDS011;4926;42.670;23.316;2023-02-01T06:10:42;4.85;;;3.05;;
9773;SDS011;4926;42.670;23.316;2023-02-01T06:13:09;5.15;;;3.13;;
9773;SDS011;4926;42.670;23.316;2023-02-01T06:15:36;4.63;;;3.05;;
9773;SDS011;4926;42.670;23.316;2023-02-01T06:18:03;7.10;;;3.10;;
9773;SDS011;4926;42.670;23.316;2023-02-01T06:20:30;4.88;;;2.90;;
9773;SDS011;4926;42.670;23.316;2023-02-01T06:22:59;4.07;;;2.85;;
9773;SDS011;4926;42.670;23.316;2023-02-01T06:25:27;7.20;;;3.38;;
9773;SDS011;4926;42.670;23.316;2023-02-01T06:27:53;4.40;;;2.92;;
9773;SDS011;4926;42.670;23.316;2023-02-01T06:30:20;8.60;;;3.00;;
9773;SDS011;4926;42.670;23.316;2023-02-01T06:32:49;5.75;;;3.10;;
9773;SDS011;4926;42.670;23.316;2023-02-01T06:35:18;4.05;;;3.13;;
9773;SDS011;4926;42.670;23.316;2023-02-01T06:37:47;6.95;;;3.20;;
9773;SDS011;4926;42.670;23.316;2023-02-01T06:40:16;6.45;;;3.75;;
9773;SDS011;4926;42.670;23.316;2023-02-01T06:42:44;7.03;;;3.42;;
9773;SDS011;4926;42.670;23.316;2023-02-01T06:45:16;4.32;;;3.30;;
9773;SDS011;4926;42.670;23.316;2023-02-01T06:47:42;5.85;;;3.72;;
9773;SDS011;4926;42.670;23.316;2023-02-01T06:50:12;6.57;;;3.38;;
9773;SDS011;4926;42.670;23.316;2023-02-01T06:52:41;6.13;;;3.67;;
9773;SDS011;4926;42.670;23.316;2023-02-01T06:55:08;5.80;;;3.92;;
9773;SDS011;4926;42.670;23.316;2023-02-01T06:57:35;8.68;;;3.67;;
9773;SDS011;4926;42.670;23.316;2023-02-01T07:02:42;5.03;;;3.00;;
9773;SDS011;4926;42.670;23.316;2023-02-01T07:05:11;4.30;;;2.75;;
9773;SDS011;4926;42.670;23.316;2023-02-01T07:07:43;3.72;;;2.95;;
9773;SDS011;4926;42.670;23.316;2023-02-01T07:10:10;4.63;;;2.70;;
9773;SDS011;4926;42.670;23.316;2023-02-01T07:12:37;9.48;;;3.22;;
9773;SDS011;4926;42.670;23.316;2023-02-01T07:15:04;4.88;;;3.03;;
9773;SDS011;4926;42.670;23.316;2023-02-01T07:17:33;5.55;;;3.15;;
9773;SDS011;4926;42.670;23.316;2023-02-01T07:20:03;4.45;;;2.72;;
9773;SDS011;4926;42.670;23.316;2023-02-01T07:22:30;8.75;;;2.97;;
9773;SDS011;4926;42.670;23.316;2023-02-01T07:24:58;6.03;;;2.88;;
9773;SDS011;4926;42.670;23.316;2023-02-01T07:27:25;3.50;;;2.60;;
9773;SDS011;4926;42.670;23.316;2023-02-01T07:29:52;4.90;;;2.92;;
9773;SDS011;4926;42.670;23.316;2023-02-01T07:32:20;4.00;;;2.53;;
9773;SDS011;4926;42.670;23.316;2023-02-01T07:34:48;8.52;;;3.33;;
9773;SDS011;4926;42.670;23.316;2023-02-01T07:37:15;5.30;;;3.05;;
9773;SDS011;4926;42.670;23.316;2023-02-01T07:39:42;6.53;;;3.15;;
9773;SDS011;4926;42.670;23.316;2023-02-01T07:42:08;5.85;;;2.58;;
9773;SDS011;4926;42.670;23.316;2023-02-01T07:44:35;3.97;;;2.70;;
9773;SDS011;4926;42.670;23.316;2023-02-01T07:47:02;5.53;;;2.63;;
9773;SDS011;4926;42.670;23.316;2023-02-01T07:49:28;3.85;;;2.40;;
9773;SDS011;4926;42.670;23.316;2023-02-01T07:51:57;3.90;;;2.88;;
9773;SDS011;4926;42.670;23.316;2023-02-01T07:54:23;5.90;;;2.92;;
9773;SDS011;4926;42.670;23.316;2023-02-01T07:56:50;5.22;;;2.92;;
9773;SDS011;4926;42.670;23.316;2023-02-01T07:59:17;8.45;;;3.30;;
9773;SDS011;4926;42.670;23.316;2023-02-01T08:01:46;6.95;;;3.10;;
9773;SDS011;4926;42.670;23.316;2023-02-01T08:04:12;7.53;;;3.25;;
9773;SDS011;4926;42.670;23.316;2023-02-01T08:06:42;6.00;;;3.13;;
9773;SDS011;4926;42.670;23.316;2023-02-01T08:09:11;4.95;;;2.90;;
9773;SDS011;4926;42.670;23.316;2023-02-01T08:11:38;7.15;;;3.38;;
9773;SDS011;4926;42.670;23.316;2023-02-01T08:14:05;2.65;;;2.03;;
9773;SDS011;4926;42.670;23.316;2023-02-01T08:16:32;8.93;;;2.65;;
9773;SDS011;4926;42.670;23.316;2023-02-01T08:19:00;7.60;;;3.40;;
9773;SDS011;4926;42.670;23.316;2023-02-01T08:21:29;6.50;;;3.15;;
9773;SDS011;4926;42.670;23.316;2023-02-01T08:24:02;8.27;;;3.83;;
9773;SDS011;4926;42.670;23.316;2023-02-01T08:26:32;12.60;;;7.00;;
9773;SDS011;4926;42.670;23.316;2023-02-01T08:29:00;7.82;;;3.35;;
9773;SDS011;4926;42.670;23.316;2023-02-01T08:31:28;6.80;;;3.33;;
9773;SDS011;4926;42.670;23.316;2023-02-01T08:33:57;6.45;;;3.42;;
9773;SDS011;4926;42.670;23.316;2023-02-01T08:36:27;10.93;;;2.90;;
9773;SDS011;4926;42.670;23.316;2023-02-01T08:38:56;6.18;;;3.28;;
9773;SDS011;4926;42.670;23.316;2023-02-01T08:41:23;5.90;;;2.88;;
9773;SDS011;4926;42.670;23.316;2023-02-01T08:43:54;6.07;;;2.45;;
9773;SDS011;4926;42.670;23.316;2023-02-01T08:46:21;2.97;;;2.45;;
9773;SDS011;4926;42.670;23.316;2023-02-01T08:48:48;6.05;;;2.97;;
9773;SDS011;4926;42.670;23.316;2023-02-01T08:51:16;7.70;;;2.95;;
9773;SDS011;4926;42.670;23.316;2023-02-01T08:53:44;5.40;;;2.75;;
9773;SDS011;4926;42.670;23.316;2023-02-01T08:56:19;2.97;;;2.40;;
9773;SDS011;4926;42.670;23.316;2023-02-01T08:58:47;6.22;;;2.83;;
9773;SDS011;4926;42.670;23.316;2023-02-01T09:01:21;3.95;;;3.03;;
9773;SDS011;4926;42.670;23.316;2023-02-01T09:03:48;7.35;;;3.20;;
9773;SDS011;4926;42.670;23.316;2023-02-01T09:06:18;5.95;;;3.03;;
9773;SDS011;4926;42.670;23.316;2023-02-01T09:08:45;6.82;;;3.08;;
9773;SDS011;4926;42.670;23.316;2023-02-01T09:11:12;4.63;;;2.75;;
9773;SDS011;4926;42.670;23.316;2023-02-01T09:13:46;7.78;;;2.80;;
9773;SDS011;4926;42.670;23.316;2023-02-01T09:16:13;5.47;;;2.88;;
9773;SDS011;4926;42.670;23.316;2023-02-01T09:18:42;2.63;;;2.35;;
9773;SDS011;4926;42.670;23.316;2023-02-01T09:21:08;7.50;;;3.13;;
9773;SDS011;4926;42.670;23.316;2023-02-01T09:23:35;4.55;;;2.25;;
9773;SDS011;4926;42.670;23.316;2023-02-01T09:26:02;4.50;;;2.47;;
9773;SDS011;4926;42.670;23.316;2023-02-01T09:28:30;5.82;;;2.65;;
9773;SDS011;4926;42.670;23.316;2023-02-01T09:30:57;3.92;;;2.45;;
9773;SDS011;4926;42.670;23.316;2023-02-01T09:33:25;5.03;;;2.67;;
9773;SDS011;4926;42.670;23.316;2023-02-01T09:35:56;5.47;;;3.00;;
9773;SDS011;4926;42.670;23.316;2023-02-01T09:38:23;3.75;;;2.38;;
9773;SDS011;4926;42.670;23.316;2023-02-01T09:40:52;4.20;;;2.70;;
9773;SDS011;4926;42.670;23.316;2023-02-01T09:43:22;3.13;;;2.38;;
9773;SDS011;4926;42.670;23.316;2023-02-01T09:46:06;6.38;;;2.60;;
9773;SDS011;4926;42.670;23.316;2023-02-01T09:48:44;4.32;;;2.45;;
9773;SDS011;4926;42.670;23.316;2023-02-01T09:51:15;8.63;;;3.85;;
9773;SDS011;4926;42.670;23.316;2023-02-01T09:53:57;4.35;;;2.63;;
9773;SDS011;4926;42.670;23.316;2023-02-01T09:56:29;5.03;;;2.70;;
9773;SDS011;4926;42.670;23.316;2023-02-01T09:59:01;4.90;;;2.10;;
9773;SDS011;4926;42.670;23.316;2023-02-01T10:01:37;4.10;;;2.47;;
9773;SDS011;4926;42.670;23.316;2023-02-01T10:04:05;5.88;;;2.90;;
9773;SDS011;4926;42.670;23.316;2023-02-01T10:06:38;5.22;;;2.63;;
9773;SDS011;4926;42.670;23.316;2023-02-01T10:09:19;5.03;;;2.30;;
9773;SDS011;4926;42.670;23.316;2023-02-01T10:12:04;4.45;;;2.92;;
9773;SDS011;4926;42.670;23.316;2023-02-01T10:14:53;4.15;;;2.50;;
9773;SDS011;4926;42.670;23.316;2023-02-01T10:17:37;4.93;;;2.47;;
9773;SDS011;4926;42.670;23.316;2023-02-01T10:20:19;6.97;;;2.78;;
9773;SDS011;4926;42.670;23.316;2023-02-01T10:22:54;5.65;;;2.35;;
9773;SDS011;4926;42.670;23.316;2023-02-01T10:25:31;4.20;;;2.30;;
9773;SDS011;4926;42.670;23.316;2023-02-01T10:28:03;4.82;;;2.65;;
9773;SDS011;4926;42.670;23.316;2023-02-01T10:30:31;3.70;;;2.50;;
9773;SDS011;4926;42.670;23.316;2023-02-01T10:33:07;4.07;;;2.38;;
9773;SDS011;4926;42.670;23.316;2023-02-01T10:35:41;5.55;;;2.38;;
9773;SDS011;4926;42.670;23.316;2023-02-01T10:38:16;4.78;;;2.70;;
9773;SDS011;4926;42.670;23.316;2023-02-01T10:40:49;3.70;;;2.03;;
9773;SDS011;4926;42.670;23.316;2023-02-01T10:43:17;2.58;;;1.85;;
9773;SDS011;4926;42.670;23.316;2023-02-01T10:45:44;4.72;;;2.35;;
9773;SDS011;4926;42.670;23.316;2023-02-01T10:48:10;7.25;;;2.45;;
9773;SDS011;4926;42.670;23.316;2023-02-01T10:50:38;2.97;;;1.95;;
9773;SDS011;4926;42.670;23.316;2023-02-01T10:53:11;6.80;;;2.72;;
9773;SDS011;4926;42.670;23.316;2023-02-01T10:55:45;7.80;;;3.03;;
9773;SDS011;4926;42.670;23.316;2023-02-01T10:58:16;3.35;;;2.30;;
9773;SDS011;4926;42.670;23.316;2023-02-01T11:00:48;5.15;;;2.33;;
9773;SDS011;4926;42.670;23.316;2023-02-01T11:03:19;3.83;;;2.13;;
9773;SDS011;4926;42.670;23.316;2023-02-01T11:05:54;4.20;;;2.35;;
9773;SDS011;4926;42.670;23.316;2023-02-01T11:08:23;6.80;;;2.58;;
9773;SDS011;4926;42.670;23.316;2023-02-01T11:10:56;3.28;;;2.20;;
9773;SDS011;4926;42.670;23.316;2023-02-01T11:13:27;8.18;;;2.35;;
9773;SDS011;4926;42.670;23.316;2023-02-01T11:16:01;7.15;;;2.38;;
9773;SDS011;4926;42.670;23.316;2023-02-01T11:18:35;3.90;;;2.30;;
9773;SDS011;4926;42.670;23.316;2023-02-01T11:21:05;2.97;;;1.98;;
9773;SDS011;4926;42.670;23.316;2023-02-01T11:23:38;2.55;;;1.90;;
9773;SDS011;4926;42.670;23.316;2023-02-01T11:26:09;3.35;;;2.10;;
9773;SDS011;4926;42.670;23.316;2023-02-01T11:28:39;7.93;;;4.55;;
9773;SDS011;4926;42.670;23.316;2023-02-01T11:31:13;3.30;;;2.03;;
9773;SDS011;4926;42.670;23.316;2023-02-01T11:33:43;3.25;;;2.08;;
9773;SDS011;4926;42.670;23.316;2023-02-01T11:36:14;4.47;;;2.10;;
9773;SDS011;4926;42.670;23.316;2023-02-01T11:38:47;4.25;;;1.70;;
9773;SDS011;4926;42.670;23.316;2023-02-01T11:41:21;2.95;;;2.08;;
9773;SDS011;4926;42.670;23.316;2023-02-01T11:43:50;4.53;;;2.08;;
9773;SDS011;4926;42.670;23.316;2023-02-01T11:46:20;2.42;;;1.80;;
9773;SDS011;4926;42.670;23.316;2023-02-01T11:48:52;5.35;;;1.90;;
9773;SDS011;4926;42.670;23.316;2023-02-01T11:54:29;2.38;;;1.70;;
9773;SDS011;4926;42.670;23.316;2023-02-01T11:57:15;2.75;;;1.67;;
9773;SDS011;4926;42.670;23.316;2023-02-01T11:59:54;2.53;;;1.60;;
9773;SDS011;4926;42.670;23.316;2023-02-01T12:05:47;2.10;;;1.60;;
9773;SDS011;4926;42.670;23.316;2023-02-01T12:08:28;3.35;;;1.52;;
9773;SDS011;4926;42.670;23.316;2023-02-01T12:11:27;2.92;;;1.98;;
9773;SDS011;4926;42.670;23.316;2023-02-01T12:14:06;4.28;;;2.30;;
9773;SDS011;4926;42.670;23.316;2023-02-01T12:16:44;3.15;;;2.10;;
9773;SDS011;4926;42.670;23.316;2023-02-01T12:19:23;2.53;;;1.30;;
9773;SDS011;4926;42.670;23.316;2023-02-01T12:22:04;4.05;;;1.67;;
9773;SDS011;4926;42.670;23.316;2023-02-01T12:24:48;3.47;;;2.13;;
9773;SDS011;4926;42.670;23.316;2023-02-01T12:27:48;2.75;;;1.95;;
9773;SDS011;4926;42.670;23.316;2023-02-01T12:30:44;3.45;;;1.73;;
9773;SDS011;4926;42.670;23.316;2023-02-01T12:33:27;3.13;;;2.20;;
9773;SDS011;4926;42.670;23.316;2023-02-01T12:36:12;3.45;;;2.05;;
9773;SDS011;4926;42.670;23.316;2023-02-01T12:38:44;2.78;;;1.80;;
9773;SDS011;4926;42.670;23.316;2023-02-01T12:41:22;4.50;;;1.75;;
9773;SDS011;4926;42.670;23.316;2023-02-01T12:44:00;2.63;;;1.75;;
9773;SDS011;4926;42.670;23.316;2023-02-01T12:46:33;2.95;;;1.60;;
9773;SDS011;4926;42.670;23.316;2023-02-01T12:49:06;2.10;;;1.30;;
9773;SDS011;4926;42.670;23.316;2023-02-01T12:51:40;17.77;;;8.93;;
9773;SDS011;4926;42.670;23.316;2023-02-01T12:54:10;3.55;;;1.77;;
9773;SDS011;4926;42.670;23.316;2023-02-01T12:56:43;2.30;;;1.80;;
9773;SDS011;4926;42.670;23.316;2023-02-01T12:59:18;3.33;;;2.17;;
9773;SDS011;4926;42.670;23.316;2023-02-01T13:01:53;3.03;;;1.73;;
9773;SDS011;4926;42.670;23.316;2023-02-01T13:04:26;3.53;;;1.60;;
9773;SDS011;4926;42.670;23.316;2023-02-01T13:07:00;2.88;;;1.77;;
9773;SDS011;4926;42.670;23.316;2023-02-01T13:09:34;2.88;;;2.00;;
9773;SDS011;4926;42.670;23.316;2023-02-01T13:12:10;2.97;;;2.05;;
9773;SDS011;4926;42.670;23.316;2023-02-01T13:14:42;2.05;;;1.48;;
9773;SDS011;4926;42.670;23.316;2023-02-01T13:17:18;3.92;;;1.70;;
9773;SDS011;4926;42.670;23.316;2023-02-01T13:19:50;4.20;;;1.83;;
9773;SDS011;4926;42.670;23.316;2023-02-01T13:22:22;5.97;;;3.35;;
9773;SDS011;4926;42.670;23.316;2023-02-01T13:24:54;4.50;;;2.38;;
9773;SDS011;4926;42.670;23.316;2023-02-01T13:27:26;3.92;;;3.00;;
9773;SDS011;4926;42.670;23.316;2023-02-01T13:29:57;4.25;;;2.10;;
9773;SDS011;4926;42.670;23.316;2023-02-01T13:32:37;3.08;;;1.65;;
9773;SDS011;4926;42.670;23.316;2023-02-01T13:35:35;2.42;;;1.65;;
9773;SDS011;4926;42.670;23.316;2023-02-01T13:38:26;3.65;;;1.85;;
9773;SDS011;4926;42.670;23.316;2023-02-01T13:41:23;3.70;;;1.50;;
9773;SDS011;4926;42.670;23.316;2023-02-01T13:43:58;2.78;;;1.83;;
9773;SDS011;4926;42.670;23.316;2023-02-01T13:46:30;1.85;;;1.50;;
9773;SDS011;4926;42.670;23.316;2023-02-01T13:49:06;2.78;;;1.50;;
9773;SDS011;4926;42.670;23.316;2023-02-01T13:51:45;3.95;;;2.17;;
9773;SDS011;4926;42.670;23.316;2023-02-01T13:54:24;2.67;;;1.65;;
9773;SDS011;4926;42.670;23.316;2023-02-01T13:56:53;2.25;;;1.50;;
9773;SDS011;4926;42.670;23.316;2023-02-01T14:02:42;3.28;;;2.25;;
9773;SDS011;4926;42.670;23.316;2023-02-01T14:08:22;4.68;;;2.10;;
9773;SDS011;4926;42.670;23.316;2023-02-01T14:11:01;2.17;;;1.67;;
9773;SDS011;4926;42.670;23.316;2023-02-01T14:13:28;2.72;;;1.83;;
9773;SDS011;4926;42.670;23.316;2023-02-01T14:16:11;3.85;;;2.45;;
9773;SDS011;4926;42.670;23.316;2023-02-01T14:18:56;3.30;;;2.53;;
9773;SDS011;4926;42.670;23.316;2023-02-01T14:21:25;2.85;;;2.10;;
9773;SDS011;4926;42.670;23.316;2023-02-01T14:23:59;3.70;;;1.60;;
9773;SDS011;4926;42.670;23.316;2023-02-01T14:26:40;3.28;;;2.00;;
9773;SDS011;4926;42.670;23.316;2023-02-01T14:29:23;3.15;;;1.98;;
9773;SDS011;4926;42.670;23.316;2023-02-01T14:32:00;1.92;;;1.65;;
9773;SDS011;4926;42.670;23.316;2023-02-01T14:34:34;3.15;;;2.10;;
9773;SDS011;4926;42.670;23.316;2023-02-01T14:37:09;1.90;;;1.70;;
9773;SDS011;4926;42.670;23.316;2023-02-01T14:39:53;2.33;;;1.85;;
9773;SDS011;4926;42.670;23.316;2023-02-01T14:42:27;4.72;;;2.00;;
9773;SDS011;4926;42.670;23.316;2023-02-01T14:51:10;2.05;;;1.75;;
9773;SDS011;4926;42.670;23.316;2023-02-01T14:53:39;4.50;;;2.88;;
9773;SDS011;4926;42.670;23.316;2023-02-01T14:56:09;3.45;;;2.22;;
9773;SDS011;4926;42.670;23.316;2023-02-01T14:58:41;3.50;;;2.13;;
9773;SDS011;4926;42.670;23.316;2023-02-01T15:01:17;4.50;;;2.45;;
9773;SDS011;4926;42.670;23.316;2023-02-01T15:03:48;4.10;;;2.80;;
9773;SDS011;4926;42.670;23.316;2023-02-01T15:06:26;4.07;;;2.80;;
9773;SDS011;4926;42.670;23.316;2023-02-01T15:08:58;3.42;;;2.42;;
9773;SDS011;4926;42.670;23.316;2023-02-01T15:11:27;5.03;;;2.78;;
9773;SDS011;4926;42.670;23.316;2023-02-01T15:13:54;4.68;;;2.67;;
9773;SDS011;4926;42.670;23.316;2023-02-01T15:16:25;3.85;;;2.55;;
9773;SDS011;4926;42.670;23.316;2023-02-01T15:21:43;4.78;;;2.40;;
9773;SDS011;4926;42.670;23.316;2023-02-01T15:24:17;3.35;;;1.90;;
9773;SDS011;4926;42.670;23.316;2023-02-01T15:26:46;6.65;;;2.30;;
9773;SDS011;4926;42.670;23.316;2023-02-01T15:29:13;2.65;;;2.10;;
9773;SDS011;4926;42.670;23.316;2023-02-01T15:31:48;9.82;;;3.08;;
9773;SDS011;4926;42.670;23.316;2023-02-01T15:34:17;6.88;;;4.00;;
9773;SDS011;4926;42.670;23.316;2023-02-01T15:36:48;4.03;;;2.60;;
9773;SDS011;4926;42.670;23.316;2023-02-01T15:39:22;4.25;;;2.60;;
9773;SDS011;4926;42.670;23.316;2023-02-01T15:41:51;5.40;;;2.50;;
9773;SDS011;4926;42.670;23.316;2023-02-01T15:44:22;3.83;;;2.30;;
9773;SDS011;4926;42.670;23.316;2023-02-01T15:46:56;4.30;;;2.00;;
9773;SDS011;4926;42.670;23.316;2023-02-01T15:49:25;3.47;;;2.40;;
9773;SDS011;4926;42.670;23.316;2023-02-01T15:51:55;5.18;;;1.80;;
9773;SDS011;4926;42.670;23.316;2023-02-01T15:54:24;4.20;;;2.00;;
9773;SDS011;4926;42.670;23.316;2023-02-01T15:56:58;5.00;;;1.50;;
9773;SDS011;4926;42.670;23.316;2023-02-01T15:59:28;2.42;;;1.60;;